createdAt,value
2023-04-18T00:00:49.872Z,10.99
2023-04-18T00:03:52.788Z,10.92
2023-04-18T00:06:55.904Z,10.87
2023-04-18T00:09:58.546Z,10.79
2023-04-18T00:13:01.112Z,10.93
2023-04-18T00:16:03.884Z,10.94
2023-04-18T00:19:06.606Z,10.97
2023-04-18T00:22:13.396Z,10.93
2023-04-18T00:25:16.066Z,10.86
2023-04-18T00:28:18.648Z,10.84
2023-04-18T00:31:21.234Z,10.84
2023-04-18T00:34:23.900Z,10.88
2023-04-18T00:37:29.834Z,10.91
2023-04-18T00:40:32.499Z,10.90
2023-04-18T00:43:35.307Z,10.72
2023-04-18T00:46:38.017Z,10.74
2023-04-18T00:49:40.732Z,10.76
2023-04-18T00:52:43.763Z,10.75
2023-04-18T00:55:46.508Z,10.70
2023-04-18T00:58:49.077Z,10.77
2023-04-18T01:01:51.751Z,10.70
2023-04-18T01:04:54.444Z,10.77
2023-04-18T01:08:01.141Z,10.81
2023-04-18T01:11:04.043Z,10.80
2023-04-18T01:14:08.250Z,10.69
2023-04-18T01:17:13.557Z,10.69
2023-04-18T01:20:16.994Z,10.70
2023-04-18T01:23:20.452Z,10.67
2023-04-18T01:26:23.168Z,10.69
2023-04-18T01:29:26.519Z,10.63
2023-04-18T01:32:29.178Z,10.64
2023-04-18T01:35:32.802Z,10.73
2023-04-18T01:38:35.324Z,10.63
2023-04-18T01:41:38.100Z,10.54
2023-04-18T01:44:40.966Z,10.55
2023-04-18T01:47:44.221Z,10.55
2023-04-18T01:50:47.485Z,10.49
2023-04-18T01:53:50.232Z,10.50
2023-04-18T01:56:52.774Z,10.45
2023-04-18T01:59:55.594Z,10.58
2023-04-18T02:03:00.024Z,10.60
2023-04-18T02:06:04.323Z,10.66
2023-04-18T02:09:06.948Z,10.63
2023-04-18T02:12:10.218Z,10.57
2023-04-18T02:15:12.830Z,10.47
2023-04-18T02:18:17.495Z,10.38
2023-04-18T02:21:20.112Z,10.48
2023-04-18T02:24:24.701Z,10.41
2023-04-18T02:27:27.303Z,10.49
2023-04-18T02:30:32.769Z,10.48
2023-04-18T02:33:37.909Z,10.41
2023-04-18T02:36:40.954Z,10.44
2023-04-18T02:39:46.169Z,10.43
2023-04-18T02:42:48.781Z,10.39
2023-04-18T02:45:51.421Z,10.39
2023-04-18T02:48:53.981Z,10.35
2023-04-18T02:51:59.894Z,10.26
2023-04-18T02:55:02.621Z,10.26
2023-04-18T02:58:11.461Z,10.36
2023-04-18T03:01:22.940Z,10.29
2023-04-18T03:04:33.400Z,10.10
2023-04-18T03:07:38.540Z,10.26
2023-04-18T03:10:41.678Z,10.16
2023-04-18T03:13:44.475Z,10.12
2023-04-18T03:16:47.856Z,10.16
2023-04-18T03:19:54.606Z,10.12
2023-04-18T03:22:57.293Z,10.12
2023-04-18T03:26:02.233Z,10.15
2023-04-18T03:29:07.382Z,10.14
2023-04-18T03:32:10.037Z,10.10
2023-04-18T03:35:12.704Z,10.13
2023-04-18T03:38:15.440Z,10.11
2023-04-18T03:41:19.036Z,10.05
2023-04-18T03:44:21.716Z,10.18
2023-04-18T03:47:24.446Z,10.22
2023-04-18T03:50:31.688Z,10.20
2023-04-18T03:53:34.401Z,10.12
2023-04-18T03:56:37.054Z,10.21
2023-04-18T03:59:39.686Z,10.13
2023-04-18T04:02:42.638Z,10.10
2023-04-18T04:05:48.331Z,10.04
2023-04-18T04:08:52.038Z,10.14
2023-04-18T04:11:59.052Z,10.15
2023-04-18T04:15:03.463Z,10.14
2023-04-18T04:18:06.679Z,10.17
2023-04-18T04:21:12.436Z,10.19
2023-04-18T04:24:22.792Z,10.18
2023-04-18T04:27:27.217Z,10.17
2023-04-18T04:30:31.885Z,10.08
2023-04-18T04:33:35.695Z,10.21
2023-04-18T04:36:43.249Z,10.19
2023-04-18T04:39:48.653Z,10.12
2023-04-18T04:43:15.739Z,10.25
2023-04-18T04:46:20.563Z,10.28
2023-04-18T04:49:25.613Z,10.26
2023-04-18T04:52:28.136Z,10.33
2023-04-18T04:55:31.095Z,10.38
2023-04-18T04:58:33.841Z,10.39
2023-04-18T05:01:53.351Z,10.45
2023-04-18T05:05:11.663Z,10.27
2023-04-18T05:08:14.434Z,10.43
2023-04-18T05:11:18.141Z,10.40
2023-04-18T05:14:22.356Z,10.53
2023-04-18T05:17:31.531Z,10.62
2023-04-18T05:20:34.367Z,10.53
2023-04-18T05:23:37.271Z,10.52
2023-04-18T05:26:40.294Z,10.54
2023-04-18T05:29:42.851Z,10.57
2023-04-18T05:32:46.561Z,10.53
2023-04-18T05:35:49.490Z,10.29
2023-04-18T05:38:52.351Z,10.26
2023-04-18T05:41:55.668Z,10.69
2023-04-18T05:44:58.367Z,10.88
2023-04-18T05:48:01.760Z,11.02
2023-04-18T05:51:06.056Z,10.84
2023-04-18T05:54:08.768Z,11.03
2023-04-18T05:57:12.094Z,11.06
2023-04-18T06:00:15.370Z,10.64
2023-04-18T06:03:18.303Z,10.64
2023-04-18T06:06:21.731Z,11.01
2023-04-18T06:09:24.360Z,11.03
2023-04-18T06:12:27.160Z,10.98
2023-04-18T06:15:30.258Z,11.17
2023-04-18T06:18:33.193Z,11.36
2023-04-18T06:21:36.182Z,11.05
2023-04-18T06:24:39.082Z,11.22
2023-04-18T06:27:41.755Z,11.48
2023-04-18T06:30:45.427Z,11.60
2023-04-18T06:33:48.201Z,11.74
2023-04-18T06:36:50.907Z,11.75
2023-04-18T06:39:54.385Z,11.63
2023-04-18T06:42:57.208Z,11.82
2023-04-18T06:45:59.971Z,11.85
2023-04-18T06:49:02.784Z,11.46
2023-04-18T06:52:05.593Z,11.46
2023-04-18T06:55:09.404Z,11.78
2023-04-18T06:58:14.149Z,11.39
2023-04-18T07:01:17.018Z,11.93
2023-04-18T07:04:20.230Z,11.69
2023-04-18T07:07:23.448Z,11.80
2023-04-18T07:10:26.501Z,12.17
2023-04-18T07:13:29.765Z,12.44
2023-04-18T07:16:32.898Z,12.05
2023-04-18T07:19:35.894Z,12.28
2023-04-18T07:22:39.288Z,12.29
2023-04-18T07:25:41.991Z,12.74
2023-04-18T07:28:47.575Z,12.34
2023-04-18T07:31:51.430Z,12.66
2023-04-18T07:34:54.158Z,12.64
2023-04-18T07:37:57.115Z,12.81
2023-04-18T07:41:00.863Z,13.17
2023-04-18T07:44:03.549Z,13.44
2023-04-18T07:47:10.078Z,13.75
2023-04-18T07:50:12.910Z,14.29
2023-04-18T08:14:38.960Z,12.38
2023-04-18T08:38:55.068Z,12.75
2023-04-18T08:42:00.062Z,12.82
2023-04-18T08:45:04.345Z,12.45
2023-04-18T08:48:17.062Z,12.75
2023-04-18T08:51:20.049Z,12.56
2023-04-18T08:54:25.078Z,12.70
2023-04-18T08:57:31.663Z,12.54
2023-04-18T09:00:43.434Z,12.41
2023-04-18T09:03:46.836Z,12.47
2023-04-18T09:06:55.750Z,12.63
2023-04-18T09:10:02.824Z,12.69
2023-04-18T09:13:15.275Z,12.58
2023-04-18T09:16:26.590Z,12.74
2023-04-18T09:19:32.148Z,12.31
2023-04-18T09:22:56.091Z,12.32
2023-04-18T09:26:03.226Z,12.00
2023-04-18T09:29:06.546Z,11.93
2023-04-18T09:32:15.338Z,11.98
2023-04-18T09:35:24.534Z,11.89
2023-04-18T09:38:41.324Z,11.74
2023-04-18T09:41:58.633Z,11.41
2023-04-18T09:45:06.906Z,11.32
2023-04-18T09:48:09.639Z,11.34
2023-04-18T09:51:16.032Z,11.40
2023-04-18T09:54:20.725Z,11.51
2023-04-18T09:57:26.531Z,11.49
2023-04-18T10:00:31.169Z,11.53
2023-04-18T10:03:39.276Z,11.71
2023-04-18T10:06:54.853Z,11.78
2023-04-18T10:09:57.816Z,11.87
2023-04-18T10:13:03.390Z,11.82
2023-04-18T10:16:09.709Z,12.14
2023-04-18T10:19:22.950Z,12.82
2023-04-18T10:22:29.037Z,13.13
2023-04-18T10:25:41.186Z,13.30
2023-04-18T10:29:00.414Z,13.70
2023-04-18T10:32:07.238Z,13.58
2023-04-18T10:35:10.957Z,13.38
2023-04-18T10:38:17.321Z,13.25
2023-04-18T10:41:24.689Z,13.56
2023-04-18T10:44:27.758Z,13.83
2023-04-18T11:04:09.820Z,14.13
2023-04-18T11:07:12.633Z,14.27
2023-04-18T11:10:28.530Z,14.69
2023-04-18T11:13:32.294Z,14.59
2023-04-18T11:16:35.891Z,15.00
2023-04-18T11:19:38.547Z,15.07
2023-04-18T11:22:50.388Z,15.89
2023-04-18T11:25:56.719Z,16.18
2023-04-18T11:28:59.328Z,16.62
2023-04-18T11:32:02.002Z,16.05
2023-04-18T11:35:05.110Z,16.31
2023-04-18T11:38:08.882Z,16.01
2023-04-18T11:41:17.716Z,16.30
2023-04-18T11:44:24.949Z,16.61
2023-04-18T11:47:38.324Z,16.22
2023-04-18T11:50:41.074Z,16.21
2023-04-18T11:53:43.796Z,16.62
2023-04-18T11:56:48.844Z,16.63
2023-04-18T11:59:59.857Z,15.94
2023-04-18T12:03:04.862Z,17.20
2023-04-18T12:06:07.827Z,17.23
2023-04-18T12:09:14.681Z,16.14
2023-04-18T12:12:19.645Z,17.26
2023-04-18T12:15:29.336Z,16.73
2023-04-18T12:18:32.726Z,16.92
2023-04-18T12:21:35.440Z,16.84
2023-04-18T12:24:38.305Z,16.73
2023-04-18T12:27:52.263Z,16.28
2023-04-18T12:31:02.143Z,16.11
2023-04-18T12:34:04.830Z,16.41
2023-04-18T12:37:07.360Z,16.62
2023-04-18T12:40:11.299Z,16.47
2023-04-18T12:43:14.013Z,15.77
2023-04-18T12:46:17.089Z,15.51
2023-04-18T12:49:19.909Z,15.99
2023-04-18T12:52:22.896Z,15.93
2023-04-18T12:55:26.117Z,15.94
2023-04-18T12:58:28.821Z,16.07
2023-04-18T13:01:31.710Z,15.96
2023-04-18T13:04:34.900Z,15.93
2023-04-18T13:07:40.805Z,15.78
2023-04-18T13:10:43.734Z,15.57
2023-04-18T13:13:47.079Z,15.64
2023-04-18T13:16:49.823Z,16.13
2023-04-18T13:19:52.709Z,16.61
2023-04-18T13:22:55.974Z,17.18
2023-04-18T13:25:58.818Z,16.67
2023-04-18T13:29:02.236Z,16.70
2023-04-18T13:32:06.222Z,16.87
2023-04-18T13:35:09.252Z,16.81
2023-04-18T13:38:11.770Z,16.62
2023-04-18T13:41:14.375Z,16.68
2023-04-18T13:44:16.987Z,16.68
2023-04-18T13:47:19.820Z,16.97
2023-04-18T13:50:23.338Z,16.82
2023-04-18T13:53:26.009Z,16.91
2023-04-18T13:56:28.673Z,16.50
2023-04-18T13:59:32.647Z,16.61
2023-04-18T14:02:35.385Z,16.43
2023-04-18T14:05:38.331Z,16.59
2023-04-18T14:08:41.087Z,16.87
2023-04-18T14:11:45.457Z,16.86
2023-04-18T14:14:48.117Z,17.15
2023-04-18T14:17:50.629Z,17.30
2023-04-18T14:20:53.427Z,17.17
2023-04-18T14:23:56.367Z,17.59
2023-04-18T14:26:58.978Z,17.79
2023-04-18T14:30:01.835Z,18.52
2023-04-18T14:33:05.086Z,20.85
2023-04-18T14:36:08.526Z,21.86
2023-04-18T14:39:11.340Z,19.13
2023-04-18T14:42:14.224Z,18.57
2023-04-18T14:45:17.087Z,18.37
2023-04-18T14:48:19.796Z,18.10
2023-04-18T14:51:23.504Z,19.01
2023-04-18T14:54:26.175Z,18.59
2023-04-18T14:57:31.834Z,17.72
2023-04-18T15:00:34.475Z,16.93
2023-04-18T15:03:37.479Z,16.79
2023-04-18T15:06:40.933Z,16.54
2023-04-18T15:09:43.661Z,16.35
2023-04-18T15:12:49.215Z,16.26
2023-04-18T15:15:53.023Z,15.99
2023-04-18T15:18:55.755Z,16.11
2023-04-18T15:21:58.409Z,16.15
2023-04-18T15:25:01.018Z,15.90
2023-04-18T15:28:03.732Z,15.98
2023-04-18T15:31:07.429Z,15.81
2023-04-18T15:34:10.255Z,15.70
2023-04-18T15:37:13.055Z,15.58
2023-04-18T15:40:16.591Z,15.46
2023-04-18T15:43:19.308Z,15.62
2023-04-18T15:46:22.300Z,15.58
2023-04-18T15:49:24.962Z,15.59
2023-04-18T15:52:27.625Z,15.58
2023-04-18T15:55:30.265Z,15.49
2023-04-18T15:58:32.839Z,15.54
2023-04-18T16:01:35.835Z,15.48
2023-04-18T16:04:38.497Z,15.49
2023-04-18T16:07:42.403Z,15.50
2023-04-18T16:10:45.170Z,15.33
2023-04-18T16:13:47.826Z,15.06
2023-04-18T16:16:50.531Z,15.19
2023-04-18T16:19:54.346Z,14.83
2023-04-18T16:22:56.912Z,14.38
2023-04-18T16:25:59.490Z,14.05
2023-04-18T16:29:02.212Z,13.95
2023-04-18T16:32:06.735Z,13.70
2023-04-18T16:35:10.362Z,13.47
2023-04-18T16:38:12.918Z,13.18
2023-04-18T16:41:15.816Z,13.06
2023-04-18T16:44:18.614Z,12.78
2023-04-18T16:47:21.369Z,12.69
2023-04-18T16:50:24.858Z,12.39
2023-04-18T16:53:27.654Z,12.37
2023-04-18T16:56:30.780Z,12.11
2023-04-18T16:59:33.410Z,11.97
2023-04-18T17:02:36.196Z,11.93
2023-04-18T17:05:39.520Z,11.68
2023-04-18T17:08:42.678Z,11.47
2023-04-18T17:11:45.790Z,11.40
2023-04-18T17:14:48.516Z,11.21
2023-04-18T17:17:51.127Z,10.95
2023-04-18T17:20:53.892Z,10.76
2023-04-18T17:23:57.302Z,10.51
2023-04-18T17:27:01.376Z,10.51
2023-04-18T17:30:04.836Z,10.45
2023-04-18T17:33:07.815Z,10.39
2023-04-18T17:36:10.982Z,10.31
2023-04-18T17:39:16.442Z,10.24
2023-04-18T17:42:19.876Z,10.08
2023-04-18T17:45:22.567Z,9.98
2023-04-18T17:48:25.982Z,9.86
2023-04-18T17:51:28.810Z,9.58
2023-04-18T17:54:32.840Z,9.57
2023-04-18T17:57:35.611Z,9.46
2023-04-18T18:00:39.396Z,9.35
2023-04-18T18:03:43.029Z,9.37
2023-04-18T18:06:55.933Z,9.20
2023-04-18T18:09:58.519Z,9.21
2023-04-18T18:13:01.264Z,9.11
2023-04-18T18:16:04.362Z,9.11
2023-04-18T18:19:09.857Z,9.01
2023-04-18T18:22:12.610Z,9.16
2023-04-18T18:25:15.497Z,9.04
2023-04-18T18:28:18.803Z,9.01
2023-04-18T18:31:24.932Z,8.98
2023-04-18T18:34:29.881Z,9.00
2023-04-18T18:37:33.135Z,8.95
2023-04-18T18:40:36.054Z,8.89
2023-04-18T18:43:38.925Z,8.84
2023-04-18T18:46:43.079Z,8.90
2023-04-18T18:49:46.589Z,9.03
2023-04-18T18:52:49.366Z,9.03
2023-04-18T18:55:51.922Z,9.21
2023-04-18T18:58:57.312Z,9.21
2023-04-18T19:02:00.042Z,9.27
2023-04-18T19:05:04.041Z,9.32
2023-04-18T19:08:06.889Z,9.35
2023-04-18T19:11:10.210Z,9.56
2023-04-18T19:14:13.960Z,9.70
2023-04-18T19:17:18.656Z,9.77
2023-04-18T19:20:22.730Z,9.91
2023-04-18T19:23:25.763Z,10.05
2023-04-18T19:26:28.570Z,10.19
2023-04-18T19:29:32.925Z,10.40
2023-04-18T19:32:36.412Z,10.59
2023-04-18T19:35:39.213Z,10.70
2023-04-18T19:38:41.832Z,10.64
2023-04-18T19:41:44.535Z,10.73
2023-04-18T19:44:47.379Z,10.73
2023-04-18T19:47:50.371Z,10.68
2023-04-18T19:50:52.981Z,10.67
2023-04-18T19:53:55.795Z,10.61
2023-04-18T19:56:58.791Z,10.54
2023-04-18T20:00:01.514Z,10.59
2023-04-18T20:03:17.054Z,10.43
2023-04-18T20:06:20.386Z,10.39
2023-04-18T20:09:23.316Z,10.30
2023-04-18T20:12:26.091Z,10.23
2023-04-18T20:15:30.717Z,10.16
2023-04-18T20:18:35.867Z,10.12
2023-04-18T20:21:38.607Z,10.03
2023-04-18T20:24:41.461Z,9.72
2023-04-18T20:27:44.260Z,10.06
2023-04-18T20:30:48.080Z,10.03
2023-04-18T20:33:51.033Z,9.99
2023-04-18T20:36:53.925Z,9.86
2023-04-18T20:39:58.821Z,9.79
2023-04-18T20:43:04.395Z,9.63
2023-04-18T20:46:07.358Z,9.47
2023-04-18T20:49:10.213Z,9.31
2023-04-18T20:52:14.540Z,9.17
2023-04-18T20:55:18.435Z,9.18
2023-04-18T20:58:21.156Z,9.21
2023-04-18T21:01:23.982Z,9.28
2023-04-18T21:04:27.656Z,9.26
2023-04-18T21:07:31.306Z,9.38
2023-04-18T21:10:34.244Z,9.41
2023-04-18T21:13:37.095Z,9.47
2023-04-18T21:16:39.956Z,9.64
2023-04-18T21:19:44.688Z,9.64
2023-04-18T21:22:47.412Z,9.62
2023-04-18T21:25:50.329Z,9.62
2023-04-18T21:28:53.416Z,9.67
2023-04-18T21:31:56.147Z,9.69
2023-04-18T21:34:58.991Z,9.90
2023-04-18T21:38:01.698Z,9.90
2023-04-18T21:41:05.766Z,9.88
2023-04-18T21:44:08.422Z,9.87
2023-04-18T21:47:11.064Z,9.77
2023-04-18T21:50:13.752Z,9.81
2023-04-18T21:53:16.478Z,9.78
2023-04-18T21:56:19.115Z,9.77
2023-04-18T21:59:21.966Z,9.81
2023-04-18T22:02:25.694Z,9.72
2023-04-18T22:05:28.972Z,9.74
2023-04-18T22:08:31.746Z,9.75
2023-04-18T22:11:34.386Z,9.65
2023-04-18T22:14:37.028Z,9.61
2023-04-18T22:17:41.515Z,9.60
2023-04-18T22:20:45.299Z,9.48
2023-04-18T22:23:47.979Z,9.52
2023-04-18T22:26:50.663Z,9.49
2023-04-18T22:29:53.285Z,9.41
2023-04-18T22:32:55.954Z,9.34
2023-04-18T22:35:58.756Z,9.40
2023-04-18T22:39:01.474Z,9.28
2023-04-18T22:42:05.181Z,9.38
2023-04-18T22:45:08.340Z,9.45
2023-04-18T22:48:13.420Z,9.42
2023-04-18T22:51:18.297Z,9.46
2023-04-18T22:54:21.183Z,9.54
2023-04-18T22:57:23.826Z,9.44
2023-04-18T23:00:26.443Z,9.57
2023-04-18T23:03:31.300Z,9.44
2023-04-18T23:06:34.075Z,9.48
2023-04-18T23:09:37.988Z,9.36
2023-04-18T23:12:40.670Z,9.41
2023-04-18T23:15:43.412Z,9.38
2023-04-18T23:18:46.110Z,9.30
2023-04-18T23:21:49.727Z,9.08
2023-04-18T23:24:52.675Z,9.05
2023-04-18T23:27:55.274Z,8.99
2023-04-18T23:30:57.882Z,8.90
2023-04-18T23:34:00.447Z,9.13
2023-04-18T23:37:03.132Z,8.94
2023-04-18T23:40:06.975Z,8.85
2023-04-18T23:43:09.754Z,8.92
2023-04-18T23:46:13.340Z,8.95
2023-04-18T23:49:16.312Z,8.85
2023-04-18T23:52:18.910Z,8.88
2023-04-18T23:55:21.597Z,8.93
2023-04-18T23:58:24.200Z,8.84
